createdAt,value
2022-10-03T00:01:54.895Z,6.70
2022-10-03T00:04:40.974Z,6.60
2022-10-03T00:07:26.705Z,6.60
2022-10-03T00:10:06.273Z,6.60
2022-10-03T00:13:07.938Z,6.60
2022-10-03T00:15:39.860Z,6.60
2022-10-03T00:18:57.639Z,6.50
2022-10-03T00:21:53.422Z,6.50
2022-10-03T00:24:43.162Z,6.40
2022-10-03T00:27:29.277Z,6.40
2022-10-03T00:30:09.872Z,6.40
2022-10-03T00:33:36.049Z,6.30
2022-10-03T00:36:17.912Z,6.20
2022-10-03T00:39:26.254Z,6.20
2022-10-03T00:42:20.622Z,6.10
2022-10-03T00:44:59.410Z,6.10
2022-10-03T00:47:54.648Z,6.10
2022-10-03T00:50:46.075Z,6.00
2022-10-03T00:53:55.751Z,6.00
2022-10-03T00:56:40.582Z,6.00
2022-10-03T00:59:14.551Z,6.00
2022-10-03T01:01:51.816Z,5.90
2022-10-03T01:04:30.679Z,5.90
2022-10-03T01:07:22.395Z,5.80
2022-10-03T01:10:02.106Z,5.90
2022-10-03T01:12:47.897Z,5.80
2022-10-03T01:15:44.385Z,5.80
2022-10-03T01:18:20.514Z,5.80
2022-10-03T01:20:53.432Z,5.80
2022-10-03T01:23:50.175Z,5.80
2022-10-03T01:26:38.918Z,5.80
2022-10-03T01:29:59.571Z,5.90
2022-10-03T01:32:42.894Z,5.90
2022-10-03T01:35:37.788Z,5.90
2022-10-03T01:38:42.134Z,5.90
2022-10-03T01:41:51.397Z,5.90
2022-10-03T01:44:25.114Z,5.90
2022-10-03T01:47:24.603Z,5.90
2022-10-03T01:50:13.006Z,5.90
2022-10-03T01:52:53.136Z,5.90
2022-10-03T01:55:51.338Z,5.90
2022-10-03T01:58:47.884Z,5.90
2022-10-03T02:01:44.713Z,5.90
2022-10-03T02:04:23.189Z,5.90
2022-10-03T02:07:23.857Z,5.90
2022-10-03T02:10:19.376Z,5.90
2022-10-03T02:13:18.782Z,6.00
2022-10-03T02:16:08.281Z,6.00
2022-10-03T02:18:57.424Z,6.00
2022-10-03T02:21:28.207Z,6.00
2022-10-03T02:24:16.724Z,6.00
2022-10-03T02:27:25.233Z,5.90
2022-10-03T02:30:42.517Z,6.00
2022-10-03T02:33:47.935Z,6.00
2022-10-03T02:36:45.476Z,6.00
2022-10-03T02:39:27.800Z,6.00
2022-10-03T02:42:10.859Z,6.00
2022-10-03T02:44:56.146Z,6.00
2022-10-03T02:48:13.760Z,6.10
2022-10-03T02:51:20.060Z,6.10
2022-10-03T02:54:17.875Z,6.10
2022-10-03T02:56:45.378Z,6.10
2022-10-03T02:59:44.823Z,6.10
2022-10-03T03:02:39.811Z,6.20
2022-10-03T03:05:26.584Z,6.20
2022-10-03T03:08:29.218Z,6.30
2022-10-03T03:11:02.421Z,6.30
2022-10-03T03:14:08.393Z,6.40
2022-10-03T03:16:52.645Z,6.40
2022-10-03T03:19:38.403Z,6.50
2022-10-03T03:22:29.436Z,6.50
2022-10-03T03:25:02.699Z,6.50
2022-10-03T03:27:54.141Z,6.60
2022-10-03T03:30:23.977Z,6.70
2022-10-03T03:33:16.280Z,6.80
2022-10-03T03:36:20.117Z,6.90
2022-10-03T03:39:11.649Z,6.90
2022-10-03T03:42:13.229Z,6.90
2022-10-03T03:44:59.330Z,6.90
2022-10-03T03:47:43.461Z,7.00
2022-10-03T03:50:35.314Z,7.00
2022-10-03T03:53:32.850Z,7.00
2022-10-03T03:56:17.562Z,7.10
2022-10-03T03:59:14.935Z,7.20
2022-10-03T04:02:05.477Z,7.20
2022-10-03T04:04:52.307Z,7.20
2022-10-03T04:07:29.462Z,7.20
2022-10-03T04:10:22.886Z,7.20
2022-10-03T04:13:14.070Z,7.20
2022-10-03T04:15:50.740Z,7.20
2022-10-03T04:18:46.628Z,7.30
2022-10-03T04:21:32.702Z,7.30
2022-10-03T04:24:21.054Z,7.40
2022-10-03T04:27:15.499Z,7.40
2022-10-03T04:30:15.618Z,7.40
2022-10-03T04:33:13.863Z,7.50
2022-10-03T04:36:19.183Z,7.50
2022-10-03T04:39:16.942Z,7.50
2022-10-03T04:42:18.047Z,7.60
2022-10-03T04:45:19.750Z,7.60
2022-10-03T04:48:19.185Z,7.60
2022-10-03T04:51:05.405Z,7.60
2022-10-03T04:53:56.846Z,7.70
2022-10-03T04:56:44.240Z,7.70
2022-10-03T04:59:55.471Z,7.70
2022-10-03T05:02:43.735Z,7.70
2022-10-03T05:05:41.976Z,7.80
2022-10-03T05:08:58.980Z,7.80
2022-10-03T05:11:49.366Z,7.80
2022-10-03T05:14:22.809Z,7.90
2022-10-03T05:17:08.432Z,7.90
2022-10-03T05:19:47.338Z,7.90
2022-10-03T05:22:35.456Z,7.90
2022-10-03T05:25:31.739Z,8.00
2022-10-03T05:28:01.640Z,8.00
2022-10-03T05:31:04.107Z,8.00
2022-10-03T05:33:46.667Z,8.00
2022-10-03T05:36:24.426Z,8.00
2022-10-03T05:39:19.336Z,8.10
2022-10-03T05:42:20.999Z,8.10
2022-10-03T05:45:22.910Z,8.10
2022-10-03T05:48:27.754Z,8.10
2022-10-03T05:51:01.171Z,8.10
2022-10-03T05:53:37.338Z,8.10
2022-10-03T05:56:26.366Z,8.10
2022-10-03T05:59:14.099Z,8.10
2022-10-03T06:01:59.870Z,8.10
2022-10-03T06:04:46.466Z,8.10
2022-10-03T06:07:44.452Z,8.10
2022-10-03T06:10:39.630Z,8.20
2022-10-03T06:13:44.067Z,8.20
2022-10-03T06:16:24.202Z,8.20
2022-10-03T06:19:06.483Z,8.20
2022-10-03T06:22:04.086Z,8.30
2022-10-03T06:25:02.418Z,8.30
2022-10-03T06:28:19.582Z,8.30
2022-10-03T06:30:49.959Z,8.20
2022-10-03T06:34:02.735Z,8.20
2022-10-03T06:36:39.085Z,8.20
2022-10-03T06:39:43.129Z,8.20
2022-10-03T06:42:25.543Z,8.20
2022-10-03T06:45:18.839Z,8.30
2022-10-03T06:48:13.681Z,8.20
2022-10-03T06:51:02.197Z,8.20
2022-10-03T06:54:13.929Z,8.10
2022-10-03T06:57:03.706Z,8.20
2022-10-03T06:59:36.628Z,8.20
2022-10-03T07:02:07.220Z,8.20
2022-10-03T07:05:16.309Z,8.20
2022-10-03T07:08:04.496Z,8.10
2022-10-03T07:10:53.532Z,8.10
2022-10-03T07:13:40.665Z,8.20
2022-10-03T07:16:26.989Z,8.30
2022-10-03T07:19:13.527Z,8.30
2022-10-03T07:22:11.447Z,8.40
2022-10-03T07:25:25.848Z,8.40
2022-10-03T07:28:06.238Z,8.30
2022-10-03T07:30:45.515Z,8.40
2022-10-03T07:34:00.477Z,8.40
2022-10-03T07:36:50.412Z,8.40
2022-10-03T07:40:14.705Z,8.30
2022-10-03T07:43:03.649Z,8.40
2022-10-03T07:45:41.762Z,8.40
2022-10-03T07:48:30.319Z,8.50
2022-10-03T07:51:35.821Z,8.50
2022-10-03T07:54:24.750Z,8.60
2022-10-03T07:57:09.940Z,8.60
2022-10-03T08:00:14.160Z,8.70
2022-10-03T08:02:59.595Z,8.70
2022-10-03T08:05:51.139Z,8.80
2022-10-03T08:08:54.531Z,8.80
2022-10-03T08:12:15.052Z,8.90
2022-10-03T08:15:21.737Z,8.90
2022-10-03T08:18:24.078Z,9.00
2022-10-03T08:21:00.715Z,9.10
2022-10-03T08:23:58.566Z,9.10
2022-10-03T08:26:55.467Z,9.20
2022-10-03T08:29:38.117Z,9.20
2022-10-03T08:32:47.818Z,9.20
2022-10-03T08:35:38.926Z,9.40
2022-10-03T08:38:33.768Z,9.50
2022-10-03T08:41:10.057Z,9.50
2022-10-03T08:43:52.644Z,9.60
2022-10-03T08:46:44.231Z,9.70
2022-10-03T08:49:30.354Z,9.90
2022-10-03T08:52:09.313Z,10.10
2022-10-03T08:54:45.662Z,10.10
2022-10-03T08:57:37.945Z,10.10
2022-10-03T09:00:15.850Z,10.10
2022-10-03T09:03:31.503Z,10.10
2022-10-03T09:06:09.273Z,10.20
2022-10-03T09:09:04.598Z,10.30
2022-10-03T09:11:48.830Z,10.40
2022-10-03T09:14:35.126Z,10.50
2022-10-03T09:17:43.545Z,10.60
2022-10-03T09:20:49.024Z,10.60
2022-10-03T09:23:42.503Z,10.60
2022-10-03T09:26:31.339Z,10.70
2022-10-03T09:29:38.113Z,10.70
2022-10-03T09:32:42.997Z,10.80
2022-10-03T09:36:08.908Z,10.90
2022-10-03T09:39:01.488Z,11.00
2022-10-03T09:41:47.234Z,10.90
2022-10-03T09:44:32.023Z,10.90
2022-10-03T09:47:29.702Z,10.80
2022-10-03T09:50:07.336Z,10.90
2022-10-03T09:53:19.310Z,10.90
2022-10-03T09:56:11.070Z,10.80
2022-10-03T09:58:59.543Z,10.70
2022-10-03T10:01:31.194Z,10.70
2022-10-03T10:04:16.230Z,10.60
2022-10-03T10:07:17.594Z,10.60
2022-10-03T10:10:03.028Z,10.60
2022-10-03T10:12:30.244Z,10.50
2022-10-03T10:15:00.160Z,10.50
2022-10-03T10:17:27.568Z,10.50
2022-10-03T10:20:07.564Z,10.50
2022-10-03T10:22:38.483Z,10.60
2022-10-03T10:25:25.857Z,10.60
2022-10-03T10:28:34.671Z,10.70
2022-10-03T10:31:37.518Z,10.60
2022-10-03T10:34:41.403Z,10.60
2022-10-03T10:37:27.111Z,10.60
2022-10-03T10:40:29.145Z,10.60
2022-10-03T10:43:27.957Z,10.70
2022-10-03T10:46:22.984Z,10.70
2022-10-03T10:49:20.798Z,10.70
2022-10-03T10:52:25.035Z,10.70
2022-10-03T10:55:06.800Z,10.80
2022-10-03T10:57:55.336Z,10.80
2022-10-03T11:00:50.110Z,10.90
2022-10-03T11:03:32.176Z,10.90
2022-10-03T11:06:20.303Z,10.90
2022-10-03T11:08:55.341Z,10.90
2022-10-03T11:11:59.167Z,10.90
2022-10-03T11:14:47.843Z,11.00
2022-10-03T11:17:20.523Z,11.00
2022-10-03T11:20:29.128Z,11.00
2022-10-03T11:23:17.616Z,11.10
2022-10-03T11:26:03.637Z,11.10
2022-10-03T11:28:49.443Z,11.10
2022-10-03T11:31:31.290Z,11.10
2022-10-03T11:34:36.738Z,11.20
2022-10-03T11:37:24.869Z,11.10
2022-10-03T11:39:55.045Z,11.20
2022-10-03T11:42:33.684Z,11.30
2022-10-03T11:45:21.055Z,11.40
2022-10-03T11:48:03.618Z,11.40
2022-10-03T11:50:43.049Z,11.30
2022-10-03T11:53:17.250Z,11.40
2022-10-03T11:55:54.415Z,11.40
2022-10-03T11:58:34.976Z,11.40
2022-10-03T12:01:23.022Z,11.40
2022-10-03T12:04:08.904Z,11.40
2022-10-03T12:07:17.673Z,11.40
2022-10-03T12:10:14.799Z,11.40
2022-10-03T12:13:15.237Z,11.40
2022-10-03T12:15:52.367Z,11.40
2022-10-03T12:18:42.971Z,11.40
2022-10-03T12:21:12.175Z,11.40
2022-10-03T12:23:53.178Z,11.40
2022-10-03T12:26:30.542Z,11.40
2022-10-03T12:29:00.306Z,11.40
2022-10-03T12:31:40.333Z,11.40
2022-10-03T12:34:27.586Z,11.40
2022-10-03T12:37:00.797Z,11.40
2022-10-03T12:39:46.863Z,11.40
2022-10-03T12:42:41.582Z,11.30
2022-10-03T12:45:16.748Z,11.50
2022-10-03T12:48:36.241Z,11.50
2022-10-03T12:51:35.674Z,11.40
2022-10-03T12:54:17.173Z,11.50
2022-10-03T12:57:06.070Z,11.50
2022-10-03T12:59:50.705Z,11.50
2022-10-03T13:02:36.750Z,11.60
2022-10-03T13:05:37.922Z,11.60
2022-10-03T13:08:27.730Z,11.60
2022-10-03T13:11:26.129Z,11.60
2022-10-03T13:14:28.338Z,11.70
2022-10-03T13:17:36.344Z,11.70
2022-10-03T13:20:13.587Z,11.80
2022-10-03T13:23:04.908Z,11.70
2022-10-03T13:25:40.141Z,11.80
2022-10-03T13:28:48.468Z,11.80
2022-10-03T13:31:32.704Z,11.70
2022-10-03T13:34:13.191Z,11.70
2022-10-03T13:36:53.572Z,11.70
2022-10-03T13:39:51.337Z,11.80
2022-10-03T13:42:33.839Z,11.70
2022-10-03T13:45:05.760Z,11.60
2022-10-03T13:47:54.150Z,11.60
2022-10-03T13:50:33.395Z,11.60
2022-10-03T13:53:15.464Z,11.60
2022-10-03T13:55:58.675Z,11.60
2022-10-03T13:58:52.092Z,11.60
2022-10-03T14:01:35.258Z,11.60
2022-10-03T14:04:33.947Z,11.60
2022-10-03T14:07:20.086Z,11.60
2022-10-03T14:09:58.061Z,11.60
2022-10-03T14:13:10.811Z,11.60
2022-10-03T14:15:55.704Z,11.60
2022-10-03T14:18:45.117Z,11.50
2022-10-03T14:21:27.525Z,11.50
2022-10-03T14:24:06.514Z,11.50
2022-10-03T14:26:46.229Z,11.50
2022-10-03T14:30:03.687Z,11.50
2022-10-03T14:32:49.507Z,11.50
2022-10-03T14:35:40.208Z,11.50
2022-10-03T14:38:52.164Z,11.50
2022-10-03T14:41:30.759Z,11.50
2022-10-03T14:44:12.710Z,11.40
2022-10-03T14:47:08.220Z,11.50
2022-10-03T14:49:54.937Z,11.40
2022-10-03T14:52:42.113Z,11.50
2022-10-03T14:55:27.596Z,11.40
2022-10-03T14:58:10.804Z,11.40
2022-10-03T15:00:39.157Z,11.40
2022-10-03T15:03:18.398Z,11.40
2022-10-03T15:06:02.998Z,11.40
2022-10-03T15:08:53.942Z,11.40
2022-10-03T15:12:03.214Z,11.40
2022-10-03T15:14:34.707Z,11.40
2022-10-03T15:17:07.214Z,11.40
2022-10-03T15:19:44.227Z,11.40
2022-10-03T15:22:30.897Z,11.40
2022-10-03T15:25:07.490Z,11.40
2022-10-03T15:27:36.200Z,11.40
2022-10-03T15:30:08.430Z,11.40
2022-10-03T15:32:43.725Z,11.40
2022-10-03T15:35:18.925Z,11.40
2022-10-03T15:37:47.994Z,11.40
2022-10-03T15:40:23.787Z,11.40
2022-10-03T15:43:09.318Z,11.40
2022-10-03T15:45:38.746Z,11.30
2022-10-03T15:48:13.381Z,11.40
2022-10-03T15:50:43.811Z,11.30
2022-10-03T15:53:37.841Z,11.30
2022-10-03T15:56:08.236Z,11.30
2022-10-03T15:58:42.767Z,11.40
2022-10-03T16:01:29.495Z,11.40
2022-10-03T16:04:06.784Z,11.40
2022-10-03T16:06:50.293Z,11.40
2022-10-03T16:09:27.995Z,11.40
2022-10-03T16:12:15.158Z,11.30
2022-10-03T16:14:58.513Z,11.40
2022-10-03T16:17:31.654Z,11.30
2022-10-03T16:20:16.870Z,11.30
2022-10-03T16:22:58.944Z,11.20
2022-10-03T16:25:32.322Z,11.20
2022-10-03T16:28:04.959Z,11.20
2022-10-03T16:30:42.583Z,11.20
2022-10-03T16:33:09.955Z,11.20
2022-10-03T16:35:41.607Z,11.20
2022-10-03T16:38:31.517Z,11.10
2022-10-03T16:41:24.676Z,11.10
2022-10-03T16:44:00.592Z,11.10
2022-10-03T16:46:42.870Z,11.10
2022-10-03T16:49:38.861Z,11.10
2022-10-03T16:52:12.235Z,11.10
2022-10-03T16:54:41.414Z,11.10
2022-10-03T16:57:36.631Z,11.00
2022-10-03T17:00:07.874Z,11.00
2022-10-03T17:02:38.919Z,11.00
2022-10-03T17:05:13.289Z,11.00
2022-10-03T17:07:44.435Z,11.00
2022-10-03T17:10:38.348Z,11.00
2022-10-03T17:13:12.164Z,10.90
2022-10-03T17:15:48.918Z,10.90
2022-10-03T17:18:28.755Z,10.90
2022-10-03T17:21:26.412Z,10.90
2022-10-03T17:24:11.141Z,10.90
2022-10-03T17:26:44.917Z,10.90
2022-10-03T17:29:20.739Z,10.90
2022-10-03T17:32:05.914Z,10.90
2022-10-03T17:34:39.708Z,11.00
2022-10-03T17:37:19.346Z,10.90
2022-10-03T17:39:54.400Z,10.90
2022-10-03T17:42:43.985Z,10.90
2022-10-03T17:45:14.267Z,10.90
2022-10-03T17:47:58.976Z,11.00
2022-10-03T17:50:31.169Z,10.90
2022-10-03T17:53:03.918Z,10.90
2022-10-03T17:55:39.485Z,10.90
2022-10-03T17:58:14.809Z,10.90
2022-10-03T18:00:45.033Z,10.90
2022-10-03T18:03:34.967Z,10.90
2022-10-03T18:06:35.055Z,10.90
2022-10-03T18:09:17.340Z,10.90
2022-10-03T18:11:47.679Z,10.90
2022-10-03T18:14:39.158Z,10.90
2022-10-03T18:17:36.561Z,10.90
2022-10-03T18:20:26.295Z,10.90
2022-10-03T18:23:01.598Z,10.90
2022-10-03T18:26:18.529Z,10.90
2022-10-03T18:28:56.074Z,10.90
2022-10-03T18:31:26.918Z,10.90
2022-10-03T18:34:12.861Z,10.90
2022-10-03T18:36:48.825Z,10.90
2022-10-03T18:39:16.370Z,10.80
2022-10-03T18:41:46.795Z,10.80
2022-10-03T18:44:20.893Z,10.80
2022-10-03T18:46:56.778Z,10.90
2022-10-03T18:49:35.140Z,10.90
2022-10-03T18:52:18.761Z,10.90
2022-10-03T18:55:08.450Z,10.80
2022-10-03T18:58:03.369Z,10.70
2022-10-03T19:00:34.031Z,10.60
2022-10-03T19:03:13.730Z,10.60
2022-10-03T19:05:51.725Z,10.60
2022-10-03T19:08:27.669Z,10.50
2022-10-03T19:11:27.407Z,10.50
2022-10-03T19:14:08.503Z,10.50
2022-10-03T19:17:03.893Z,10.50
2022-10-03T19:20:23.572Z,10.50
2022-10-03T19:23:00.879Z,10.50
2022-10-03T19:25:29.942Z,10.40
2022-10-03T19:28:06.431Z,10.40
2022-10-03T19:30:35.893Z,10.40
2022-10-03T19:33:07.921Z,10.30
2022-10-03T19:35:40.782Z,10.30
2022-10-03T19:38:18.510Z,10.20
2022-10-03T19:41:21.548Z,10.20
2022-10-03T19:43:50.312Z,10.20
2022-10-03T19:47:01.029Z,10.20
2022-10-03T19:49:33.245Z,10.10
2022-10-03T19:52:17.258Z,10.20
2022-10-03T19:54:54.236Z,10.10
2022-10-03T19:57:42.098Z,10.10
2022-10-03T20:00:18.628Z,10.10
2022-10-03T20:02:56.979Z,10.10
2022-10-03T20:05:31.431Z,10.10
2022-10-03T20:08:26.649Z,10.10
2022-10-03T20:11:24.151Z,10.10
2022-10-03T20:13:52.325Z,10.10
2022-10-03T20:16:23.319Z,10.10
2022-10-03T20:19:12.914Z,10.00
2022-10-03T20:21:40.810Z,10.00
2022-10-03T20:24:22.584Z,10.00
2022-10-03T20:27:15.660Z,10.00
2022-10-03T20:29:51.209Z,10.10
2022-10-03T20:32:20.461Z,10.10
2022-10-03T20:34:54.986Z,10.10
2022-10-03T20:37:54.839Z,10.00
2022-10-03T20:40:26.069Z,10.00
2022-10-03T20:43:00.486Z,10.00
2022-10-03T20:45:30.025Z,10.00
2022-10-03T20:48:13.047Z,10.00
2022-10-03T20:50:47.594Z,10.00
2022-10-03T20:53:27.529Z,10.00
2022-10-03T20:56:08.832Z,10.00
2022-10-03T20:58:42.069Z,10.00
2022-10-03T21:01:15.521Z,10.20
2022-10-03T21:03:49.656Z,9.90
2022-10-03T21:06:30.620Z,10.00
2022-10-03T21:08:58.615Z,10.00
2022-10-03T21:11:30.257Z,10.00
2022-10-03T21:13:59.710Z,10.00
2022-10-03T21:16:35.092Z,10.00
2022-10-03T21:19:34.977Z,10.00
2022-10-03T21:22:07.385Z,10.00
2022-10-03T21:24:43.165Z,10.00
2022-10-03T21:27:15.950Z,10.00
2022-10-03T21:29:54.723Z,10.00
2022-10-03T21:32:47.861Z,9.90
2022-10-03T21:35:24.230Z,9.90
2022-10-03T21:38:19.199Z,9.90
2022-10-03T21:41:22.107Z,10.00
2022-10-03T21:43:55.272Z,9.90
2022-10-03T21:46:38.037Z,9.90
2022-10-03T21:49:23.792Z,10.00
2022-10-03T21:52:18.361Z,10.00
2022-10-03T21:55:33.623Z,10.00
2022-10-03T21:58:25.340Z,10.00
2022-10-03T22:01:26.201Z,10.00
2022-10-03T22:04:10.515Z,9.90
2022-10-03T22:06:55.699Z,10.00
2022-10-03T22:09:23.258Z,9.90
2022-10-03T22:11:56.013Z,10.00
2022-10-03T22:14:28.770Z,10.00
2022-10-03T22:17:01.986Z,10.00
2022-10-03T22:19:44.786Z,10.00
2022-10-03T22:22:36.769Z,10.00
2022-10-03T22:25:21.009Z,10.00
2022-10-03T22:28:07.690Z,10.00
2022-10-03T22:30:47.133Z,10.00
2022-10-03T22:33:39.514Z,9.90
2022-10-03T22:36:11.117Z,10.00
2022-10-03T22:38:39.570Z,10.00
2022-10-03T22:41:12.641Z,10.00
2022-10-03T22:43:43.997Z,9.90
2022-10-03T22:46:14.682Z,10.00
2022-10-03T22:48:49.695Z,10.00
2022-10-03T22:51:20.355Z,10.00
2022-10-03T22:54:04.651Z,10.00
2022-10-03T22:56:54.389Z,10.00
2022-10-03T22:59:31.950Z,10.00
2022-10-03T23:02:05.319Z,10.00
2022-10-03T23:04:44.987Z,10.00
2022-10-03T23:07:20.114Z,10.00
2022-10-03T23:10:08.843Z,10.00
2022-10-03T23:13:24.116Z,10.00
2022-10-03T23:15:58.985Z,10.00
2022-10-03T23:18:58.502Z,9.90
2022-10-03T23:21:26.010Z,9.80
2022-10-03T23:23:59.775Z,9.80
2022-10-03T23:26:39.566Z,9.70
2022-10-03T23:29:18.382Z,9.70
2022-10-03T23:31:53.580Z,9.70
2022-10-03T23:34:36.288Z,9.70
2022-10-03T23:37:15.633Z,9.70
2022-10-03T23:40:04.735Z,9.60
2022-10-03T23:42:44.717Z,9.60
2022-10-03T23:45:19.351Z,9.60
2022-10-03T23:47:55.596Z,9.50
2022-10-03T23:50:57.513Z,9.50
2022-10-03T23:53:44.829Z,9.50
2022-10-03T23:56:29.565Z,9.50
2022-10-03T23:59:03.172Z,9.50
